createdAt,value
2017-11-17T00:01:11.670Z,41.43
2017-11-17T00:03:40.284Z,39.37
2017-11-17T00:06:08.544Z,38.47
2017-11-17T00:08:36.807Z,40.23
2017-11-17T00:11:04.291Z,36.10
2017-11-17T00:13:32.597Z,39.37
2017-11-17T00:16:00.195Z,39.60
2017-11-17T00:18:27.657Z,37.80
2017-11-17T00:20:55.198Z,35.80
2017-11-17T00:23:22.679Z,33.90
2017-11-17T00:25:51.676Z,37.97
2017-11-17T00:28:19.178Z,40.60
2017-11-17T00:30:46.648Z,36.30
2017-11-17T00:33:14.135Z,36.10
2017-11-17T00:35:41.616Z,37.37
2017-11-17T00:38:09.120Z,34.83
2017-11-17T00:40:36.668Z,36.60
2017-11-17T00:43:04.182Z,37.37
2017-11-17T00:45:31.670Z,39.13
2017-11-17T00:47:59.923Z,40.63
2017-11-17T00:50:27.415Z,39.97
2017-11-17T00:52:55.682Z,38.60
2017-11-17T00:55:23.915Z,39.10
2017-11-17T00:57:51.425Z,38.57
2017-11-17T01:00:19.664Z,38.30
2017-11-17T01:02:47.508Z,39.30
2017-11-17T01:05:15.026Z,39.93
2017-11-17T01:07:43.260Z,38.50
2017-11-17T01:10:10.751Z,40.30
2017-11-17T01:12:39.348Z,41.70
2017-11-17T01:15:07.611Z,39.80
2017-11-17T01:17:35.855Z,41.57
2017-11-17T01:20:03.376Z,41.20
2017-11-17T01:22:30.878Z,42.37
2017-11-17T01:24:58.411Z,43.20
2017-11-17T01:27:25.903Z,41.80
2017-11-17T01:29:53.375Z,43.50
2017-11-17T01:32:20.859Z,43.30
2017-11-17T01:34:48.340Z,45.90
2017-11-17T01:37:15.828Z,43.40
2017-11-17T01:39:43.313Z,46.10
2017-11-17T01:42:10.810Z,43.83
2017-11-17T01:44:38.278Z,39.77
2017-11-17T01:47:05.778Z,45.03
2017-11-17T01:49:33.261Z,47.77
2017-11-17T01:52:01.512Z,42.90
2017-11-17T01:54:29.012Z,43.23
2017-11-17T01:56:56.516Z,42.33
2017-11-17T01:59:24.001Z,39.20
2017-11-17T02:01:51.484Z,38.17
2017-11-17T02:04:19.079Z,35.83
2017-11-17T02:06:48.093Z,32.90
2017-11-17T02:09:15.581Z,31.90
2017-11-17T02:11:43.058Z,31.67
2017-11-17T02:14:11.335Z,31.73
2017-11-17T02:16:39.623Z,31.97
2017-11-17T02:19:07.115Z,32.63
2017-11-17T02:21:34.635Z,33.60
2017-11-17T02:24:02.136Z,32.00
2017-11-17T02:26:29.695Z,33.20
2017-11-17T02:28:57.195Z,35.60
2017-11-17T02:31:25.457Z,37.37
2017-11-17T02:33:52.934Z,35.30
2017-11-17T02:36:21.255Z,38.37
2017-11-17T02:38:48.758Z,43.40
2017-11-17T02:41:16.269Z,40.70
2017-11-17T02:43:43.759Z,39.17
2017-11-17T02:46:11.245Z,41.60
2017-11-17T02:48:39.519Z,41.17
2017-11-17T02:51:07.796Z,42.20
2017-11-17T02:53:36.054Z,40.67
2017-11-17T02:56:03.520Z,40.30
2017-11-17T02:58:31.026Z,43.73
2017-11-17T03:00:58.515Z,39.37
2017-11-17T03:03:26.015Z,44.60
2017-11-17T03:05:54.253Z,41.20
2017-11-17T03:08:21.767Z,44.77
2017-11-17T03:10:49.236Z,42.10
2017-11-17T03:13:16.717Z,42.03
2017-11-17T03:15:44.198Z,41.00
2017-11-17T03:18:11.684Z,36.50
2017-11-17T03:20:39.930Z,36.20
2017-11-17T03:23:07.506Z,32.50
2017-11-17T03:25:34.988Z,33.50
2017-11-17T03:28:03.248Z,33.13
2017-11-17T03:30:31.498Z,29.90
2017-11-17T03:32:59.009Z,30.37
2017-11-17T03:35:26.489Z,24.93
2017-11-17T03:37:53.971Z,23.43
2017-11-17T03:40:21.454Z,24.27
2017-11-17T03:42:49.725Z,20.60
2017-11-17T03:45:17.237Z,23.60
2017-11-17T03:47:44.778Z,22.73
2017-11-17T03:50:12.296Z,19.57
2017-11-17T03:52:40.273Z,19.73
2017-11-17T03:55:07.777Z,18.40
2017-11-17T03:57:35.245Z,20.57
2017-11-17T04:00:02.781Z,22.87
2017-11-17T04:02:30.281Z,19.93
2017-11-17T04:04:57.772Z,19.73
2017-11-17T04:07:26.037Z,20.10
2017-11-17T04:09:53.517Z,19.77
2017-11-17T04:12:21.758Z,17.77
2017-11-17T04:14:49.228Z,16.40
2017-11-17T04:17:16.723Z,17.13
2017-11-17T04:19:44.208Z,17.80
2017-11-17T04:22:11.689Z,19.63
2017-11-17T04:24:39.153Z,18.30
2017-11-17T04:27:06.650Z,17.70
2017-11-17T04:29:34.894Z,17.73
2017-11-17T04:32:02.385Z,16.53
2017-11-17T04:34:30.681Z,19.03
2017-11-17T04:36:58.186Z,17.20
2017-11-17T04:39:25.691Z,18.17
2017-11-17T04:41:53.165Z,17.57
2017-11-17T04:44:20.653Z,16.50
2017-11-17T04:46:48.137Z,18.73
2017-11-17T04:49:15.624Z,15.93
2017-11-17T04:51:43.171Z,18.00
2017-11-17T04:54:10.720Z,16.43
2017-11-17T04:56:38.955Z,19.10
2017-11-17T04:59:06.451Z,20.00
2017-11-17T05:01:33.940Z,18.53
2017-11-17T05:04:01.461Z,18.10
2017-11-17T05:06:28.985Z,15.53
2017-11-17T05:08:56.478Z,15.53
2017-11-17T05:11:23.985Z,15.80
2017-11-17T05:13:51.482Z,17.33
2017-11-17T05:16:18.975Z,16.00
2017-11-17T05:18:47.233Z,14.13
2017-11-17T05:21:16.228Z,14.83
2017-11-17T05:23:45.236Z,14.57
2017-11-17T05:26:12.817Z,14.37
2017-11-17T05:28:41.062Z,12.87
2017-11-17T05:31:09.325Z,13.90
2017-11-17T05:33:36.800Z,15.30
2017-11-17T05:36:05.796Z,15.67
2017-11-17T05:38:33.383Z,14.33
2017-11-17T05:41:00.869Z,13.40
2017-11-17T05:43:28.374Z,14.77
2017-11-17T05:45:55.857Z,13.43
2017-11-17T05:48:23.376Z,14.53
2017-11-17T05:50:50.849Z,13.60
2017-11-17T05:53:19.115Z,13.80
2017-11-17T05:55:48.132Z,19.23
2017-11-17T05:58:15.604Z,17.00
2017-11-17T06:00:43.135Z,14.37
2017-11-17T06:03:12.170Z,15.60
2017-11-17T06:05:39.636Z,15.17
2017-11-17T06:08:07.135Z,16.57
2017-11-17T06:10:34.623Z,14.27
2017-11-17T06:13:02.874Z,14.80
2017-11-17T06:15:30.357Z,15.47
2017-11-17T06:17:58.607Z,15.50
2017-11-17T06:20:26.096Z,15.87
2017-11-17T06:22:54.353Z,15.20
2017-11-17T06:25:21.914Z,16.13
2017-11-17T06:27:50.905Z,17.83
2017-11-17T06:30:18.404Z,16.87
2017-11-17T06:32:46.317Z,18.63
2017-11-17T06:35:13.799Z,15.93
2017-11-17T06:37:42.809Z,18.40
2017-11-17T06:40:11.056Z,18.00
2017-11-17T06:42:38.548Z,18.20
2017-11-17T06:45:06.792Z,20.00
2017-11-17T06:47:35.063Z,18.30
2017-11-17T06:50:02.630Z,20.17
2017-11-17T06:52:30.114Z,17.47
2017-11-17T06:54:58.380Z,19.07
2017-11-17T06:57:25.864Z,17.83
2017-11-17T06:59:53.411Z,17.83
2017-11-17T07:02:20.928Z,16.30
2017-11-17T07:04:48.434Z,18.83
2017-11-17T07:07:16.676Z,22.57
2017-11-17T07:09:44.174Z,17.00
2017-11-17T07:12:12.427Z,17.63
2017-11-17T07:14:39.945Z,18.43
2017-11-17T07:17:07.428Z,17.30
2017-11-17T07:19:34.903Z,18.20
2017-11-17T07:22:02.402Z,18.37
2017-11-17T07:24:29.884Z,17.77
2017-11-17T07:26:57.390Z,19.07
2017-11-17T07:29:25.642Z,20.30
2017-11-17T07:31:53.147Z,20.93
2017-11-17T07:34:20.632Z,20.23
2017-11-17T07:36:48.133Z,20.30
2017-11-17T07:39:15.609Z,20.30
2017-11-17T07:41:43.871Z,21.00
2017-11-17T07:44:11.396Z,19.70
2017-11-17T07:46:38.893Z,20.63
2017-11-17T07:49:06.368Z,19.73
2017-11-17T07:51:34.615Z,21.13
2017-11-17T07:54:02.878Z,19.63
2017-11-17T07:56:30.357Z,19.90
2017-11-17T07:58:58.180Z,19.87
2017-11-17T08:01:25.657Z,19.20
2017-11-17T08:03:53.201Z,21.67
2017-11-17T08:06:20.704Z,21.47
2017-11-17T08:08:48.204Z,19.67
2017-11-17T08:11:15.699Z,21.43
2017-11-17T08:13:43.192Z,18.73
2017-11-17T08:16:11.464Z,27.53
2017-11-17T08:18:47.903Z,20.93
2017-11-17T08:21:16.293Z,18.63
2017-11-17T08:23:43.869Z,20.40
2017-11-17T08:26:11.333Z,18.20
2017-11-17T08:28:39.714Z,17.07
2017-11-17T08:31:07.964Z,15.53
2017-11-17T08:33:35.473Z,14.93
2017-11-17T08:36:02.962Z,13.20
2017-11-17T08:38:30.439Z,12.87
2017-11-17T08:40:59.435Z,14.20
2017-11-17T08:43:26.926Z,11.47
2017-11-17T08:45:55.218Z,12.27
2017-11-17T08:48:22.817Z,13.50
2017-11-17T08:50:50.319Z,11.90
2017-11-17T08:53:18.575Z,12.80
2017-11-17T08:55:46.097Z,12.63
2017-11-17T08:58:13.587Z,11.20
2017-11-17T09:00:41.079Z,12.30
2017-11-17T09:03:09.337Z,12.40
2017-11-17T09:05:36.876Z,11.30
2017-11-17T09:08:04.372Z,9.33
2017-11-17T09:10:32.619Z,10.00
2017-11-17T09:13:00.100Z,8.50
2017-11-17T09:15:27.612Z,8.87
2017-11-17T09:17:55.109Z,8.33
2017-11-17T09:20:22.624Z,9.60
2017-11-17T09:22:50.236Z,10.43
2017-11-17T09:25:17.744Z,7.70
2017-11-17T09:27:45.227Z,7.43
2017-11-17T09:30:12.708Z,9.43
2017-11-17T09:32:40.213Z,9.47
2017-11-17T09:35:07.732Z,9.40
2017-11-17T09:37:35.256Z,8.00
2017-11-17T09:40:02.797Z,8.70
2017-11-17T09:42:30.351Z,7.73
2017-11-17T09:44:57.933Z,7.70
2017-11-17T09:47:25.493Z,8.00
2017-11-17T09:49:53.005Z,9.70
2017-11-17T09:52:21.261Z,9.47
2017-11-17T09:54:49.535Z,10.40
2017-11-17T09:57:17.591Z,7.67
2017-11-17T09:59:45.102Z,7.90
2017-11-17T10:02:12.611Z,7.73
2017-11-17T10:04:40.964Z,8.37
2017-11-17T10:07:08.441Z,7.80
2017-11-17T10:09:35.956Z,7.70
2017-11-17T10:12:03.527Z,7.77
2017-11-17T10:14:31.013Z,7.93
2017-11-17T10:16:58.532Z,8.70
2017-11-17T10:19:26.791Z,8.03
2017-11-17T10:21:55.063Z,8.93
2017-11-17T10:24:22.599Z,7.77
2017-11-17T10:26:50.119Z,7.33
2017-11-17T10:29:17.631Z,7.10
2017-11-17T10:31:45.935Z,13.23
2017-11-17T10:34:14.249Z,11.53
2017-11-17T10:36:41.734Z,10.80
2017-11-17T10:39:09.281Z,10.40
2017-11-17T10:41:36.795Z,10.73
2017-11-17T10:44:05.037Z,8.77
2017-11-17T10:46:32.564Z,9.60
2017-11-17T10:49:00.072Z,12.10
2017-11-17T10:51:28.321Z,13.20
2017-11-17T10:53:55.871Z,13.10
2017-11-17T10:56:25.346Z,14.93
2017-11-17T10:58:52.861Z,14.93
2017-11-17T11:01:20.341Z,13.73
2017-11-17T11:03:48.620Z,13.07
2017-11-17T11:06:16.167Z,12.50
2017-11-17T11:08:43.659Z,11.93
2017-11-17T11:11:16.612Z,10.20
2017-11-17T11:13:44.886Z,12.40
2017-11-17T11:16:13.157Z,12.53
2017-11-17T11:18:40.658Z,13.10
2017-11-17T11:21:08.271Z,14.00
2017-11-17T11:23:35.792Z,12.53
2017-11-17T11:26:03.317Z,12.77
2017-11-17T11:28:31.620Z,14.87
2017-11-17T11:30:59.192Z,15.90
2017-11-17T11:33:26.712Z,13.33
2017-11-17T11:35:54.975Z,13.83
2017-11-17T11:38:22.485Z,14.37
2017-11-17T11:40:49.990Z,17.83
2017-11-17T11:43:17.464Z,15.80
2017-11-17T11:45:45.101Z,15.57
2017-11-17T11:48:12.586Z,16.07
2017-11-17T11:50:40.844Z,16.47
2017-11-17T11:53:08.343Z,13.30
2017-11-17T11:55:35.849Z,12.60
2017-11-17T11:58:03.334Z,12.40
2017-11-17T12:00:31.620Z,11.90
2017-11-17T12:02:59.965Z,12.53
2017-11-17T12:05:27.465Z,14.13
2017-11-17T12:07:55.712Z,13.10
2017-11-17T12:10:23.308Z,14.23
2017-11-17T12:12:50.784Z,14.27
2017-11-17T12:15:18.370Z,12.97
2017-11-17T12:17:45.833Z,13.63
2017-11-17T12:20:13.351Z,12.30
2017-11-17T12:22:40.864Z,10.47
2017-11-17T12:25:08.358Z,11.90
2017-11-17T12:27:35.886Z,11.80
2017-11-17T12:30:03.408Z,10.93
2017-11-17T12:32:30.911Z,9.80
2017-11-17T12:34:58.384Z,9.10
2017-11-17T12:37:26.657Z,10.27
2017-11-17T12:39:54.933Z,11.63
2017-11-17T12:42:23.225Z,9.30
2017-11-17T12:44:50.737Z,10.37
2017-11-17T12:47:18.481Z,10.30
2017-11-17T12:49:45.955Z,7.50
2017-11-17T12:52:13.480Z,8.47
2017-11-17T12:54:40.974Z,5.57
2017-11-17T12:57:08.456Z,4.70
2017-11-17T12:59:36.723Z,4.90
2017-11-17T13:02:04.199Z,4.37
2017-11-17T13:04:32.451Z,3.80
2017-11-17T13:07:00.108Z,3.80
2017-11-17T13:09:27.606Z,4.90
2017-11-17T13:11:55.860Z,4.87
2017-11-17T13:14:23.428Z,4.33
2017-11-17T13:16:50.892Z,4.90
2017-11-17T13:19:19.145Z,4.63
2017-11-17T13:21:46.612Z,5.37
2017-11-17T13:24:14.160Z,4.20
2017-11-17T13:26:41.641Z,5.00
2017-11-17T13:29:09.133Z,6.83
2017-11-17T13:31:36.612Z,5.80
2017-11-17T13:34:04.103Z,4.27
2017-11-17T13:36:31.605Z,4.77
2017-11-17T13:38:59.076Z,4.80
2017-11-17T13:41:26.582Z,4.20
2017-11-17T13:43:54.074Z,4.80
2017-11-17T13:46:22.320Z,5.80
2017-11-17T13:48:49.864Z,6.37
2017-11-17T13:51:17.335Z,5.10
2017-11-17T13:53:45.586Z,5.27
2017-11-17T13:56:13.098Z,5.50
2017-11-17T13:58:41.335Z,3.87
2017-11-17T14:01:08.941Z,4.40
2017-11-17T14:03:37.261Z,4.50
2017-11-17T14:06:04.746Z,4.17
2017-11-17T14:08:32.299Z,3.73
2017-11-17T14:10:59.798Z,3.93
2017-11-17T14:13:27.353Z,3.40
2017-11-17T14:15:55.710Z,2.93
2017-11-17T14:18:24.015Z,3.20
2017-11-17T14:20:51.733Z,3.33
2017-11-17T14:23:19.334Z,2.47
2017-11-17T14:25:47.559Z,4.17
2017-11-17T14:28:15.117Z,3.13
2017-11-17T14:30:42.628Z,3.10
2017-11-17T14:33:10.885Z,2.00
2017-11-17T14:35:38.410Z,2.47
2017-11-17T14:38:05.916Z,2.77
2017-11-17T14:40:34.180Z,2.70
2017-11-17T14:43:01.671Z,2.90
2017-11-17T14:45:29.183Z,2.47
2017-11-17T14:47:56.669Z,4.27
2017-11-17T14:50:24.924Z,2.70
2017-11-17T14:52:52.414Z,2.27
2017-11-17T14:55:20.666Z,5.90
2017-11-17T14:57:48.164Z,3.80
2017-11-17T15:00:15.648Z,3.80
2017-11-17T15:02:43.178Z,3.47
2017-11-17T15:05:11.425Z,4.00
2017-11-17T15:07:38.919Z,4.20
2017-11-17T15:10:06.453Z,3.17
2017-11-17T15:12:33.944Z,3.33
2017-11-17T15:15:01.436Z,3.60
2017-11-17T15:17:28.951Z,4.40
2017-11-17T15:19:56.454Z,4.70
2017-11-17T15:22:23.963Z,3.10
2017-11-17T15:24:52.228Z,3.50
2017-11-17T15:27:19.721Z,3.90
2017-11-17T15:29:47.209Z,2.83
2017-11-17T15:32:14.679Z,3.50
2017-11-17T15:34:42.351Z,4.43
2017-11-17T15:37:10.233Z,6.30
2017-11-17T15:39:39.235Z,5.57
2017-11-17T15:42:07.524Z,5.33
2017-11-17T15:44:35.040Z,4.10
2017-11-17T15:47:02.575Z,5.93
2017-11-17T15:49:30.191Z,4.00
2017-11-17T15:51:58.473Z,4.80
2017-11-17T15:54:26.900Z,4.63
2017-11-17T15:56:54.916Z,4.50
2017-11-17T15:59:23.175Z,4.87
2017-11-17T16:01:50.795Z,6.23
2017-11-17T16:04:18.300Z,4.87
2017-11-17T16:06:45.973Z,5.27
2017-11-17T16:09:13.532Z,5.20
2017-11-17T16:11:41.150Z,5.37
2017-11-17T16:14:08.678Z,5.60
2017-11-17T16:16:36.403Z,6.17
2017-11-17T16:19:05.019Z,6.40
2017-11-17T16:21:32.713Z,5.50
2017-11-17T16:24:00.528Z,5.37
2017-11-17T16:26:28.469Z,5.37
2017-11-17T16:28:55.978Z,4.67
2017-11-17T16:31:24.347Z,5.40
2017-11-17T16:33:52.713Z,7.47
2017-11-17T16:36:20.196Z,7.60
2017-11-17T16:38:47.694Z,7.50
2017-11-17T16:41:15.187Z,10.63
2017-11-17T16:43:42.667Z,9.20
2017-11-17T16:46:10.907Z,8.87
2017-11-17T16:48:38.405Z,9.97
2017-11-17T16:51:05.886Z,9.10
2017-11-17T16:53:33.489Z,11.30
2017-11-17T16:56:00.961Z,14.40
2017-11-17T16:58:29.292Z,15.43
2017-11-17T17:00:56.765Z,17.17
2017-11-17T17:03:24.245Z,16.57
2017-11-17T17:05:53.253Z,14.30
2017-11-17T17:08:20.759Z,14.00
2017-11-17T17:10:48.529Z,11.77
2017-11-17T17:13:16.569Z,11.50
2017-11-17T17:15:44.522Z,10.40
2017-11-17T17:18:12.123Z,11.20
2017-11-17T17:20:39.620Z,11.20
2017-11-17T17:23:07.119Z,13.50
2017-11-17T17:25:35.472Z,12.23
2017-11-17T17:28:03.075Z,12.07
2017-11-17T17:30:30.569Z,13.53
2017-11-17T17:32:58.092Z,14.10
2017-11-17T17:35:25.614Z,13.60
2017-11-17T17:37:53.118Z,15.57
2017-11-17T17:40:20.608Z,15.60
2017-11-17T17:42:48.257Z,16.93
2017-11-17T17:45:15.815Z,22.60
2017-11-17T17:47:43.299Z,25.87
2017-11-17T17:50:10.798Z,27.40
2017-11-17T17:52:38.284Z,28.07
2017-11-17T17:55:05.783Z,25.70
2017-11-17T17:57:33.270Z,24.80
2017-11-17T18:00:00.772Z,20.30
2017-11-17T18:02:28.313Z,25.53
2017-11-17T18:04:55.788Z,27.90
2017-11-17T18:07:23.276Z,24.80
2017-11-17T18:09:51.861Z,26.63
2017-11-17T18:12:19.358Z,22.70
2017-11-17T18:14:46.878Z,19.90
2017-11-17T18:17:14.391Z,20.00
2017-11-17T18:19:42.949Z,21.70
2017-11-17T18:22:10.469Z,22.33
2017-11-17T18:24:37.940Z,21.50
2017-11-17T18:27:05.726Z,30.60
2017-11-17T18:29:34.004Z,22.77
2017-11-17T18:32:02.293Z,17.87
2017-11-17T18:34:29.827Z,18.87
2017-11-17T18:36:57.339Z,21.83
2017-11-17T18:39:24.880Z,22.50
2017-11-17T18:41:53.097Z,25.80
2017-11-17T18:44:20.730Z,20.90
2017-11-17T18:46:48.238Z,21.60
2017-11-17T18:49:15.742Z,22.47
2017-11-17T18:51:43.248Z,19.47
2017-11-17T18:54:10.768Z,19.13
2017-11-17T18:56:38.255Z,19.53
2017-11-17T18:59:05.791Z,17.77
2017-11-17T19:01:33.432Z,16.57
2017-11-17T19:04:00.933Z,17.37
2017-11-17T19:06:28.444Z,17.43
2017-11-17T19:08:56.049Z,23.67
2017-11-17T19:11:24.340Z,26.90
2017-11-17T19:13:51.855Z,27.83
2017-11-17T19:16:19.315Z,25.30
2017-11-17T19:18:46.885Z,22.90
2017-11-17T19:21:14.391Z,27.50
2017-11-17T19:23:41.952Z,27.13
2017-11-17T19:26:09.466Z,26.47
2017-11-17T19:28:36.940Z,23.30
2017-11-17T19:31:04.480Z,24.77
2017-11-17T19:33:31.986Z,25.53
2017-11-17T19:35:59.488Z,24.70
2017-11-17T19:38:26.961Z,27.20
2017-11-17T19:40:54.457Z,22.90
2017-11-17T19:43:22.237Z,23.70
2017-11-17T19:45:50.664Z,24.00
2017-11-17T19:48:18.181Z,20.50
2017-11-17T19:50:46.416Z,21.80
2017-11-17T19:53:14.075Z,19.77
2017-11-17T19:55:41.656Z,22.80
2017-11-17T19:58:09.264Z,20.70
2017-11-17T20:00:36.956Z,29.00
2017-11-17T20:03:04.458Z,26.00
2017-11-17T20:05:31.981Z,27.20
2017-11-17T20:07:59.473Z,31.50
2017-11-17T20:10:27.244Z,26.27
2017-11-17T20:12:54.977Z,28.10
2017-11-17T20:15:22.582Z,30.50
2017-11-17T20:17:51.974Z,25.10
2017-11-17T20:20:20.634Z,24.80
2017-11-17T20:22:48.328Z,22.50
2017-11-17T20:25:17.089Z,18.90
2017-11-17T20:27:44.841Z,20.17
2017-11-17T20:30:12.372Z,19.63
2017-11-17T20:32:40.000Z,18.30
2017-11-17T20:35:09.175Z,21.57
2017-11-17T20:37:36.848Z,21.30
2017-11-17T20:40:05.247Z,17.07
2017-11-17T20:42:32.993Z,19.67
2017-11-17T20:45:00.609Z,18.97
2017-11-17T20:47:29.192Z,18.57
2017-11-17T20:49:56.940Z,20.93
2017-11-17T20:52:24.537Z,20.53
2017-11-17T20:54:52.117Z,18.47
2017-11-17T20:57:19.603Z,21.60
2017-11-17T20:59:47.899Z,17.73
2017-11-17T21:02:15.570Z,18.20
2017-11-17T21:04:43.163Z,21.20
2017-11-17T21:07:10.808Z,21.50
2017-11-17T21:09:38.332Z,20.00
2017-11-17T21:12:05.966Z,18.50
2017-11-17T21:14:33.493Z,17.40
2017-11-17T21:17:01.192Z,16.30
2017-11-17T21:19:28.917Z,15.27
2017-11-17T21:21:56.515Z,14.30
2017-11-17T21:24:25.035Z,14.07
2017-11-17T21:26:52.548Z,14.57
2017-11-17T21:29:20.107Z,13.60
2017-11-17T21:31:47.590Z,14.60
2017-11-17T21:34:15.940Z,13.00
2017-11-17T21:36:43.427Z,13.70
2017-11-17T21:39:11.775Z,16.60
2017-11-17T21:41:39.368Z,18.50
2017-11-17T21:44:07.720Z,17.07
2017-11-17T21:46:35.285Z,19.50
2017-11-17T21:49:03.754Z,19.07
2017-11-17T21:51:32.067Z,16.03
2017-11-17T21:53:59.650Z,18.73
2017-11-17T21:56:27.154Z,16.47
2017-11-17T21:58:54.637Z,14.00
2017-11-17T22:01:22.209Z,15.47
2017-11-17T22:03:50.613Z,17.00
2017-11-17T22:06:18.126Z,18.30
2017-11-17T22:08:45.667Z,15.03
2017-11-17T22:11:13.183Z,14.70
2017-11-17T22:13:40.685Z,14.00
2017-11-17T22:16:08.211Z,13.47
2017-11-17T22:18:35.779Z,13.27
2017-11-17T22:21:03.286Z,12.70
2017-11-17T22:23:30.803Z,12.80
2017-11-17T22:25:58.309Z,12.33
2017-11-17T22:28:25.805Z,11.63
2017-11-17T22:30:53.334Z,12.50
2017-11-17T22:33:20.845Z,13.80
2017-11-17T22:35:48.326Z,12.57
2017-11-17T22:38:16.170Z,13.80
2017-11-17T22:40:43.678Z,14.40
2017-11-17T22:43:11.149Z,14.00
2017-11-17T22:45:39.488Z,13.90
2017-11-17T22:48:06.960Z,13.30
2017-11-17T22:50:35.209Z,10.10
2017-11-17T22:53:02.777Z,10.83
2017-11-17T22:55:30.249Z,12.70
2017-11-17T22:57:57.728Z,11.77
2017-11-17T23:00:25.968Z,11.00
2017-11-17T23:02:53.472Z,10.07
2017-11-17T23:05:20.962Z,9.73
2017-11-17T23:07:48.457Z,9.90
2017-11-17T23:10:15.951Z,8.70
2017-11-17T23:12:44.226Z,9.47
2017-11-17T23:15:12.502Z,8.83
2017-11-17T23:17:40.032Z,9.20
2017-11-17T23:20:07.558Z,9.07
2017-11-17T23:22:35.125Z,8.90
2017-11-17T23:25:02.628Z,10.07
2017-11-17T23:27:30.137Z,7.97
2017-11-17T23:29:57.754Z,8.63
2017-11-17T23:32:25.992Z,8.13
2017-11-17T23:34:53.488Z,10.40
2017-11-17T23:37:21.757Z,8.13
2017-11-17T23:39:49.234Z,8.90
2017-11-17T23:42:17.492Z,7.23
2017-11-17T23:44:46.485Z,7.70
2017-11-17T23:47:14.002Z,7.57
2017-11-17T23:49:41.535Z,7.50
2017-11-17T23:52:09.037Z,6.40
2017-11-17T23:54:36.547Z,9.10
2017-11-17T23:57:04.765Z,6.77
2017-11-17T23:59:32.248Z,8.63
